createdAt,value
2023-03-03T00:02:14.137Z,3.89
2023-03-03T00:07:21.610Z,3.94
2023-03-03T00:12:26.376Z,3.98
2023-03-03T00:17:30.777Z,3.95
2023-03-03T00:22:36.746Z,3.96
2023-03-03T00:27:38.360Z,3.95
2023-03-03T00:32:47.165Z,3.93
2023-03-03T00:37:57.123Z,3.90
2023-03-03T00:43:00.580Z,3.86
2023-03-03T00:48:43.825Z,3.74
2023-03-03T00:53:45.778Z,3.60
2023-03-03T00:58:50.510Z,3.52
2023-03-03T01:03:54.448Z,3.50
2023-03-03T01:08:57.364Z,3.51
2023-03-03T01:13:59.430Z,3.46
2023-03-03T01:19:02.296Z,3.38
2023-03-03T01:24:04.080Z,3.36
2023-03-03T01:29:05.802Z,3.34
2023-03-03T01:34:08.351Z,3.29
2023-03-03T01:39:11.113Z,3.28
2023-03-03T01:44:16.472Z,3.30
2023-03-03T01:49:29.022Z,3.29
2023-03-03T01:54:44.113Z,3.26
2023-03-03T01:59:50.539Z,3.26
2023-03-03T02:04:52.321Z,3.29
2023-03-03T02:10:11.559Z,3.22
2023-03-03T02:15:37.333Z,3.16
2023-03-03T02:20:58.402Z,3.14
2023-03-03T02:26:11.521Z,3.11
2023-03-03T02:31:17.104Z,3.12
2023-03-03T02:36:26.731Z,3.11
2023-03-03T02:41:51.364Z,3.09
2023-03-03T02:46:54.780Z,3.10
2023-03-03T02:51:57.023Z,3.16
2023-03-03T02:57:02.468Z,3.11
2023-03-03T03:02:04.204Z,3.15
2023-03-03T03:07:06.043Z,3.16
2023-03-03T03:12:11.396Z,3.10
2023-03-03T03:17:14.810Z,3.08
2023-03-03T03:22:19.524Z,3.07
2023-03-03T03:27:23.457Z,3.19
2023-03-03T03:32:25.875Z,3.24
2023-03-03T03:37:27.793Z,3.29
2023-03-03T03:42:29.800Z,3.35
2023-03-03T03:47:32.760Z,3.39
2023-03-03T03:52:35.158Z,3.39
2023-03-03T03:57:38.643Z,3.39
2023-03-03T04:02:40.585Z,3.39
2023-03-03T04:07:46.486Z,3.43
2023-03-03T04:12:49.987Z,3.26
2023-03-03T04:17:52.658Z,3.30
2023-03-03T04:22:54.457Z,3.31
2023-03-03T04:27:56.349Z,3.37
2023-03-03T04:32:58.508Z,3.45
2023-03-03T04:38:02.158Z,3.51
2023-03-03T04:43:04.701Z,3.53
2023-03-03T04:48:07.866Z,3.62
2023-03-03T04:53:11.855Z,3.49
2023-03-03T04:58:15.984Z,3.31
2023-03-03T05:03:18.284Z,3.17
2023-03-03T05:08:20.362Z,3.24
2023-03-03T05:13:22.545Z,3.07
2023-03-03T05:18:25.739Z,3.21
2023-03-03T05:23:27.719Z,3.39
2023-03-03T05:28:29.492Z,3.44
2023-03-03T05:33:31.194Z,3.48
2023-03-03T05:38:33.585Z,3.57
2023-03-03T05:43:35.607Z,3.54
2023-03-03T05:48:37.308Z,3.43
2023-03-03T05:53:39.318Z,3.27
2023-03-03T05:58:41.727Z,3.22
2023-03-03T06:03:43.575Z,3.16
2023-03-03T06:08:45.963Z,3.17
2023-03-03T06:13:47.700Z,3.33
2023-03-03T06:18:50.659Z,3.51
2023-03-03T06:23:54.949Z,3.52
2023-03-03T06:29:01.535Z,3.98
2023-03-03T06:34:05.308Z,3.81
2023-03-03T06:39:07.253Z,3.80
2023-03-03T06:44:09.038Z,3.76
2023-03-03T06:49:10.703Z,3.82
2023-03-03T06:54:18.174Z,3.85
2023-03-03T06:59:23.719Z,3.65
2023-03-03T07:04:31.729Z,3.51
2023-03-03T07:09:33.525Z,3.51
2023-03-03T07:14:43.210Z,3.60
2023-03-03T07:19:45.613Z,3.75
2023-03-03T07:24:52.994Z,3.87
2023-03-03T07:30:16.106Z,3.90
2023-03-03T07:35:20.451Z,3.95
2023-03-03T07:40:37.297Z,4.05
2023-03-03T07:45:38.950Z,4.10
2023-03-03T07:50:41.470Z,4.07
2023-03-03T07:55:44.758Z,4.11
2023-03-03T08:01:18.554Z,4.34
2023-03-03T08:06:49.839Z,4.58
2023-03-03T08:12:06.761Z,4.64
2023-03-03T08:17:20.408Z,4.83
2023-03-03T08:22:30.322Z,4.89
2023-03-03T08:27:32.036Z,5.02
2023-03-03T08:32:33.768Z,5.22
2023-03-03T08:37:36.040Z,5.26
2023-03-03T08:42:37.668Z,5.34
2023-03-03T08:47:39.687Z,5.40
2023-03-03T08:52:41.561Z,5.48
2023-03-03T08:57:43.434Z,5.53
2023-03-03T09:02:45.167Z,5.64
2023-03-03T09:07:48.019Z,5.72
2023-03-03T09:12:50.175Z,5.77
2023-03-03T09:17:52.209Z,5.87
2023-03-03T09:22:54.626Z,6.04
2023-03-03T09:27:56.553Z,6.20
2023-03-03T09:32:58.395Z,6.28
2023-03-03T09:38:00.177Z,6.29
2023-03-03T09:43:12.695Z,6.29
2023-03-03T09:48:20.158Z,6.36
2023-03-03T09:54:05.097Z,6.47
2023-03-03T09:59:53.579Z,6.54
2023-03-03T10:05:20.058Z,6.64
2023-03-03T10:10:45.207Z,6.79
2023-03-03T10:16:11.570Z,6.80
2023-03-03T10:21:54.956Z,6.83
2023-03-03T10:27:13.930Z,7.10
2023-03-03T10:32:33.212Z,7.17
2023-03-03T10:38:05.915Z,7.34
2023-03-03T10:43:45.547Z,7.59
2023-03-03T10:48:56.096Z,7.73
2023-03-03T10:54:10.017Z,7.58
2023-03-03T10:59:36.679Z,7.61
2023-03-03T11:05:00.228Z,7.81
2023-03-03T11:10:40.258Z,7.89
2023-03-03T11:16:24.365Z,8.00
2023-03-03T11:21:57.569Z,8.23
2023-03-03T11:27:20.233Z,8.28
2023-03-03T11:32:32.196Z,8.42
2023-03-03T11:38:05.593Z,8.63
2023-03-03T11:43:35.282Z,8.79
2023-03-03T11:48:43.510Z,8.90
2023-03-03T11:53:57.241Z,8.99
2023-03-03T11:59:17.485Z,9.20
2023-03-03T12:04:31.730Z,9.47
2023-03-03T12:09:56.318Z,9.80
2023-03-03T12:14:57.957Z,9.87
2023-03-03T12:20:13.790Z,9.84
2023-03-03T12:25:31.138Z,9.90
2023-03-03T12:30:48.551Z,9.98
2023-03-03T12:36:14.957Z,10.23
2023-03-03T12:41:39.168Z,10.33
2023-03-03T12:46:45.302Z,10.40
2023-03-03T12:52:08.638Z,10.66
2023-03-03T12:57:40.452Z,10.71
2023-03-03T13:02:58.614Z,11.00
2023-03-03T13:08:16.030Z,11.18
2023-03-03T13:13:39.377Z,11.17
2023-03-03T13:18:55.757Z,11.44
2023-03-03T13:24:16.398Z,11.53
2023-03-03T13:29:30.758Z,11.37
2023-03-03T13:35:02.049Z,11.30
2023-03-03T13:40:33.990Z,11.53
2023-03-03T13:45:35.793Z,11.51
2023-03-03T13:50:47.394Z,11.55
2023-03-03T13:56:22.767Z,11.70
2023-03-03T14:01:42.515Z,11.72
2023-03-03T14:06:52.747Z,11.84
2023-03-03T14:12:02.892Z,11.78
2023-03-03T14:17:18.455Z,11.86
2023-03-03T14:22:41.574Z,11.81
2023-03-03T14:28:01.753Z,11.67
2023-03-03T14:33:09.942Z,11.84
2023-03-03T14:38:16.529Z,12.09
2023-03-03T14:43:36.600Z,12.40
2023-03-03T14:48:51.043Z,12.46
2023-03-03T14:54:09.326Z,12.46
2023-03-03T14:59:23.954Z,12.35
2023-03-03T15:04:28.633Z,12.40
2023-03-03T15:09:48.665Z,12.60
2023-03-03T15:15:07.415Z,12.69
2023-03-03T15:20:32.519Z,12.64
2023-03-03T15:25:48.707Z,12.61
2023-03-03T15:31:32.346Z,12.37
2023-03-03T15:37:09.408Z,12.48
2023-03-03T15:42:22.688Z,12.31
2023-03-03T15:47:52.385Z,12.14
2023-03-03T15:53:04.713Z,12.28
2023-03-03T15:58:36.374Z,12.34
2023-03-03T16:03:46.404Z,12.24
2023-03-03T16:09:09.492Z,12.16
2023-03-03T16:14:39.053Z,12.06
2023-03-03T16:20:03.461Z,11.96
2023-03-03T16:25:33.777Z,11.84
2023-03-03T16:30:57.069Z,11.58
2023-03-03T16:36:03.510Z,11.17
2023-03-03T16:41:12.986Z,10.72
2023-03-03T16:46:37.184Z,10.39
2023-03-03T16:51:45.875Z,10.08
2023-03-03T16:57:09.161Z,9.68
2023-03-03T17:02:48.697Z,9.18
2023-03-03T17:08:00.895Z,8.85
2023-03-03T17:13:17.911Z,8.67
2023-03-03T17:18:49.406Z,8.52
2023-03-03T17:24:21.667Z,8.24
2023-03-03T17:29:39.481Z,7.96
2023-03-03T17:35:24.171Z,7.72
2023-03-03T17:40:37.237Z,7.56
2023-03-03T17:45:43.098Z,7.36
2023-03-03T17:51:06.417Z,7.26
2023-03-03T17:56:14.279Z,7.13
2023-03-03T18:01:49.713Z,7.00
2023-03-03T18:07:10.020Z,6.79
2023-03-03T18:12:26.825Z,6.60
2023-03-03T18:17:54.325Z,6.52
2023-03-03T18:22:56.549Z,6.26
2023-03-03T18:28:03.709Z,5.98
2023-03-03T18:33:08.859Z,5.96
2023-03-03T18:38:16.422Z,5.98
2023-03-03T18:43:57.331Z,5.81
2023-03-03T18:49:05.518Z,6.21
2023-03-03T18:54:22.221Z,6.42
2023-03-03T18:59:30.046Z,6.09
2023-03-03T19:04:36.422Z,5.74
2023-03-03T19:10:01.687Z,5.38
2023-03-03T19:15:27.661Z,5.08
2023-03-03T19:20:58.861Z,4.97
2023-03-03T19:26:30.613Z,4.97
2023-03-03T19:31:51.342Z,4.96
2023-03-03T19:37:10.926Z,4.89
2023-03-03T19:42:26.455Z,4.84
2023-03-03T19:47:40.073Z,4.89
2023-03-03T19:52:54.462Z,4.78
2023-03-03T19:58:12.265Z,4.72
2023-03-03T20:03:22.862Z,4.73
2023-03-03T20:08:53.529Z,4.67
2023-03-03T20:14:05.629Z,4.50
2023-03-03T20:19:20.321Z,4.46
2023-03-03T20:25:07.940Z,4.39
2023-03-03T20:30:50.547Z,4.19
2023-03-03T20:36:18.441Z,4.20
2023-03-03T20:41:38.629Z,4.19
2023-03-03T20:47:11.317Z,4.21
2023-03-03T20:52:30.224Z,4.18
2023-03-03T20:57:38.430Z,4.14
2023-03-03T21:02:43.975Z,4.12
2023-03-03T21:07:57.947Z,3.99
2023-03-03T21:13:39.484Z,3.87
2023-03-03T21:18:41.601Z,3.87
2023-03-03T21:23:43.767Z,3.85
2023-03-03T21:29:02.223Z,3.81
2023-03-03T21:34:19.532Z,3.66
2023-03-03T21:39:25.906Z,3.66
2023-03-03T21:44:46.587Z,3.55
2023-03-03T21:49:52.277Z,3.47
2023-03-03T21:54:54.680Z,3.53
2023-03-03T21:59:56.860Z,3.50
2023-03-03T22:04:59.342Z,3.42
2023-03-03T22:10:01.040Z,3.28
2023-03-03T22:15:02.860Z,3.25
2023-03-03T22:20:04.875Z,3.21
2023-03-03T22:25:07.538Z,3.10
2023-03-03T22:30:09.441Z,3.13
2023-03-03T22:35:11.263Z,3.04
2023-03-03T22:40:14.498Z,3.08
2023-03-03T22:45:16.444Z,2.96
2023-03-03T22:50:19.404Z,2.94
2023-03-03T22:55:22.023Z,2.97
2023-03-03T23:00:23.789Z,2.98
2023-03-03T23:05:25.675Z,2.79
2023-03-03T23:10:27.594Z,2.69
2023-03-03T23:15:29.449Z,2.74
2023-03-03T23:20:32.132Z,2.70
2023-03-03T23:25:34.374Z,2.74
2023-03-03T23:30:36.121Z,2.74
2023-03-03T23:35:38.291Z,2.70
2023-03-03T23:40:40.013Z,2.71
2023-03-03T23:45:42.151Z,2.67
2023-03-03T23:50:43.920Z,2.68
2023-03-03T23:55:45.813Z,2.62
